Swatara, MN (55785)

8:57 PM CDT on April 20, 2015 (GMT -0500)
RAWS | | Change Station
CLOSE
Current Station
Personal Weather Station
Location: Hill City, MN
Elevation: 1339 ft
Nearby Weather Stations

Elev 1339 ft 47.04 °N, 93.60 °W | Updated 50 minutes ago

Snow
Snow
32 °F
Feels Like 27 °F
N
5
Wind Variable Wind from West
Gusts 13.0 mph

Today
High -- | Low -- °F
--% Chance of Precip.
Yesterday
High -- | Low -- °F
Precip. -- in
6:18 AM 8:09 PM
Waxing Crescent, 7% visible
Pressure 29.46 in
Visibility 2.5 miles
Clouds Scattered Clouds 1900 ft
Mostly Cloudy 2500 ft
Overcast 4900 ft
Windchill 27 °F
Dew Point 30 °F
Humidity 91%
Rainfall in
Snow Depth Not available.
UV 0 out of 12
Pollen 10.00 out of 12
Air Quality Not available.
Flu Activity Local Activity
METAR KAIT 210133Z AUTO 29006G15KT 2 1/2SM -SN SCT019 BKN025 OVC049 02/M02 A2946 RMK AO2

More Conditions Fewer Conditions

Pressure 29.46 in
Visibility 2.5 miles
Clouds Scattered Clouds 1900 ft
Mostly Cloudy 2500 ft
Overcast 4900 ft
Windchill 27 °F
Dew Point 30 °F
Humidity 91%
Rainfall in
Snow Depth Not available.
UV 0 out of 12
Pollen 10.00 out of 12
Air Quality Not available.
Flu Activity Local Activity
METAR KAIT 210133Z AUTO 29006G15KT 2 1/2SM -SN SCT019 BKN025 OVC049 02/M02 A2946 RMK AO2

More Conditions Fewer Conditions

10-Day Weather Forecast

Almanac

Astronomy

Apr. 20, 2015 Rise Set
Actual Time
Civil Twilight
Nautical Twilight
Astronomical Twilight
Moon
Length of Visible Light
Length of Day
Tomorrow will be .
, % of the Moon is Illuminated

Today's Extremes

State Highs State Lows

Community

WunderPhotos

Upload Photos

1,815,276 photos uploaded!

WunderBlogs® & News

Nearby

Air Quality

  Air Quality AQ Index Pollutant
Not available.

Snow Depth

Station Depth Elevation

Earthquake Activity

City Distance Mag. Time & Date
Minimum magnitude displayed is 2.5.

Coastal Water Temperatures

Place Temperature

Stations

Nearby Weather Stations

Station Location Temp. Windchill Dew Point Humidity Wind Precip. Elev Updated Type